createdAt,value
2019-06-28T00:01:35.225Z,72.50
2019-06-28T00:04:04.535Z,73.90
2019-06-28T00:06:33.743Z,75.00
2019-06-28T00:11:31.455Z,75.80
2019-06-28T00:14:00.585Z,76.00
2019-06-28T00:16:29.728Z,76.10
2019-06-28T00:18:58.820Z,77.10
2019-06-28T00:21:28.065Z,76.80
2019-06-28T00:23:57.213Z,77.60
2019-06-28T00:26:26.396Z,77.60
2019-06-28T00:28:55.465Z,76.90
2019-06-28T00:33:53.665Z,77.00
2019-06-28T00:36:22.715Z,77.60
2019-06-28T00:38:51.728Z,77.60
2019-06-28T00:41:20.858Z,77.90
2019-06-28T00:43:49.972Z,79.50
2019-06-28T00:46:19.109Z,79.80
2019-06-28T00:48:48.276Z,78.80
2019-06-28T00:51:17.369Z,74.70
2019-06-28T00:56:15.098Z,79.70
2019-06-28T00:58:44.233Z,77.30
2019-06-28T01:01:13.441Z,73.80
2019-06-28T01:03:42.628Z,71.50
2019-06-28T01:06:11.692Z,66.60
2019-06-28T01:08:40.791Z,64.10
2019-06-28T01:11:09.870Z,62.20
2019-06-28T01:13:39.034Z,62.80
2019-06-28T01:18:36.944Z,61.70
2019-06-28T01:21:06.078Z,61.00
2019-06-28T01:23:35.083Z,61.90
2019-06-28T01:26:04.245Z,63.70
2019-06-28T01:28:33.644Z,66.30
2019-06-28T01:31:02.884Z,67.90
2019-06-28T01:33:32.009Z,90.30
2019-06-28T01:38:29.697Z,67.60
2019-06-28T01:40:58.836Z,69.50
2019-06-28T01:43:27.955Z,69.20
2019-06-28T01:45:57.081Z,69.90
2019-06-28T01:48:26.319Z,70.50
2019-06-28T01:50:55.453Z,72.80
2019-06-28T01:53:24.728Z,74.40
2019-06-28T01:55:53.763Z,86.60
2019-06-28T02:00:51.766Z,75.30
2019-06-28T02:03:20.823Z,76.70
2019-06-28T02:05:49.877Z,77.10
2019-06-28T02:08:18.818Z,77.60
2019-06-28T02:10:47.928Z,79.10
2019-06-28T02:13:16.948Z,78.30
2019-06-28T02:15:46.006Z,79.10
2019-06-28T02:18:15.162Z,84.40
2019-06-28T02:23:12.855Z,79.60
2019-06-28T02:25:42.052Z,81.20
2019-06-28T02:28:11.217Z,82.20
2019-06-28T02:30:40.314Z,82.40
2019-06-28T02:33:09.465Z,82.80
2019-06-28T02:35:38.614Z,83.30
2019-06-28T02:38:07.779Z,83.40
2019-06-28T02:40:36.809Z,82.80
2019-06-28T02:45:34.542Z,83.40
2019-06-28T02:48:03.577Z,84.60
2019-06-28T02:50:33.078Z,84.70
2019-06-28T02:53:02.394Z,84.90
2019-06-28T02:55:31.471Z,85.70
2019-06-28T02:58:00.621Z,86.60
2019-06-28T03:00:39.397Z,86.50
2019-06-28T03:03:08.483Z,84.80
2019-06-28T03:10:34.827Z,85.10
2019-06-28T03:13:04.088Z,86.00
2019-06-28T03:15:33.279Z,85.50
2019-06-28T03:18:02.425Z,86.10
2019-06-28T03:20:31.869Z,86.10
2019-06-28T03:23:01.191Z,86.40
2019-06-28T03:25:30.308Z,85.70
2019-06-28T03:27:59.487Z,85.70
2019-06-28T03:30:28.576Z,86.50
2019-06-28T03:32:57.705Z,86.70
2019-06-28T03:35:27.178Z,86.70
2019-06-28T03:37:56.201Z,86.70
2019-06-28T03:40:25.312Z,86.90
2019-06-28T03:42:54.431Z,86.90
2019-06-28T03:45:23.486Z,87.00
2019-06-28T03:47:52.514Z,86.10
2019-06-28T03:52:50.269Z,85.90
2019-06-28T03:55:19.331Z,87.40
2019-06-28T03:57:48.519Z,87.40
2019-06-28T04:00:17.570Z,87.60
2019-06-28T04:02:46.769Z,87.90
2019-06-28T04:05:15.795Z,87.90
2019-06-28T04:07:44.992Z,88.00
2019-06-28T04:10:14.143Z,85.90
2019-06-28T04:15:12.527Z,86.60
2019-06-28T04:17:41.625Z,88.00
2019-06-28T04:20:12.396Z,88.40
2019-06-28T04:22:41.672Z,88.80
2019-06-28T04:25:10.864Z,88.90
2019-06-28T04:27:39.976Z,89.10
2019-06-28T04:30:09.045Z,89.00
2019-06-28T04:32:38.178Z,88.40
2019-06-28T04:37:35.746Z,88.30
2019-06-28T04:40:05.398Z,89.40
2019-06-28T04:42:34.616Z,89.80
2019-06-28T04:45:03.741Z,90.00
2019-06-28T04:47:32.891Z,90.20
2019-06-28T04:50:01.963Z,90.50
2019-06-28T04:52:31.080Z,90.30
2019-06-28T04:55:00.179Z,90.10
2019-06-28T04:59:57.899Z,89.70
2019-06-28T05:02:27.384Z,90.50
2019-06-28T05:04:56.374Z,90.70
2019-06-28T05:07:25.534Z,90.50
2019-06-28T05:09:54.591Z,89.40
2019-06-28T05:12:23.714Z,87.60
2019-06-28T05:14:52.879Z,87.20
2019-06-28T05:17:21.993Z,82.50
2019-06-28T05:22:19.618Z,76.00
2019-06-28T05:24:48.693Z,73.80
2019-06-28T05:29:47.902Z,69.30
2019-06-28T05:32:16.884Z,68.20
2019-06-28T05:34:46.054Z,66.70
2019-06-28T05:37:15.181Z,63.90
2019-06-28T05:39:44.253Z,64.70
2019-06-28T05:44:41.948Z,64.40
2019-06-28T05:47:10.998Z,65.50
2019-06-28T05:49:40.139Z,65.40
2019-06-28T05:52:09.337Z,63.60
2019-06-28T05:54:38.438Z,60.30
2019-06-28T05:57:07.501Z,60.20
2019-06-28T05:59:36.599Z,60.20
2019-06-28T06:02:05.726Z,57.00
2019-06-28T06:07:03.368Z,55.90
2019-06-28T06:09:32.535Z,54.80
2019-06-28T06:12:01.876Z,55.80
2019-06-28T06:14:31.220Z,56.50
2019-06-28T06:17:00.442Z,54.20
2019-06-28T06:19:29.507Z,54.80
2019-06-28T06:21:58.686Z,55.90
2019-06-28T06:24:27.739Z,54.30
2019-06-28T06:29:25.616Z,53.60
2019-06-28T06:31:54.704Z,53.90
2019-06-28T06:34:23.809Z,54.10
2019-06-28T06:36:52.929Z,51.20
2019-06-28T06:39:22.041Z,50.40
2019-06-28T06:41:51.214Z,51.40
2019-06-28T06:44:27.704Z,49.70
2019-06-28T06:46:51.073Z,50.40
2019-06-28T06:49:20.263Z,49.70
2019-06-28T06:51:49.514Z,50.20
2019-06-28T06:54:18.587Z,50.60
2019-06-28T06:56:47.695Z,51.40
2019-06-28T06:59:17.096Z,52.20
2019-06-28T07:01:46.732Z,51.80
2019-06-28T07:04:16.126Z,51.30
2019-06-28T07:06:45.347Z,51.90
2019-06-28T07:09:14.585Z,50.80
2019-06-28T07:14:12.207Z,49.50
2019-06-28T07:16:41.245Z,49.90
2019-06-28T07:19:10.405Z,50.60
2019-06-28T07:21:39.369Z,49.90
2019-06-28T07:24:08.415Z,51.10
2019-06-28T07:26:37.521Z,50.00
2019-06-28T07:29:06.605Z,49.80
2019-06-28T07:31:35.702Z,49.80
2019-06-28T07:36:33.469Z,47.70
2019-06-28T07:39:02.639Z,48.40
2019-06-28T07:41:31.769Z,47.30
2019-06-28T07:44:00.922Z,48.00
2019-06-28T07:46:30.016Z,48.50
2019-06-28T07:48:59.713Z,48.00
2019-06-28T07:51:28.908Z,47.90
2019-06-28T07:53:57.966Z,49.30
2019-06-28T07:58:55.732Z,48.00
2019-06-28T08:01:24.856Z,49.00
2019-06-28T08:03:53.992Z,48.40
2019-06-28T08:06:23.115Z,48.10
2019-06-28T08:08:52.125Z,48.10
2019-06-28T08:11:21.524Z,47.50
2019-06-28T08:13:50.720Z,47.80
2019-06-28T08:18:49.178Z,46.60
2019-06-28T08:21:18.309Z,47.90
2019-06-28T08:23:47.514Z,47.40
2019-06-28T08:26:16.539Z,46.30
2019-06-28T08:28:45.652Z,47.10
2019-06-28T08:31:14.760Z,48.50
2019-06-28T08:33:43.868Z,44.70
2019-06-28T08:38:41.802Z,46.70
2019-06-28T08:41:10.883Z,44.70
2019-06-28T08:43:39.993Z,43.60
2019-06-28T08:46:09.134Z,47.10
2019-06-28T08:48:38.178Z,46.20
2019-06-28T08:51:07.676Z,41.40
2019-06-28T08:53:36.796Z,45.80
2019-06-28T08:58:34.524Z,40.90
2019-06-28T09:01:03.606Z,46.70
2019-06-28T09:03:34.880Z,43.90
2019-06-28T09:06:03.573Z,42.90
2019-06-28T09:08:32.777Z,43.00
2019-06-28T09:11:02.018Z,43.20
2019-06-28T09:13:31.272Z,43.40
2019-06-28T09:16:00.497Z,44.30
2019-06-28T09:18:29.580Z,41.80
2019-06-28T09:20:58.746Z,45.00
2019-06-28T09:23:27.677Z,43.40
2019-06-28T09:25:56.848Z,42.60
2019-06-28T09:28:26.078Z,42.20
2019-06-28T09:30:55.242Z,40.20
2019-06-28T09:33:24.512Z,40.60
2019-06-28T09:35:53.706Z,43.30
2019-06-28T09:38:23.090Z,39.90
2019-06-28T09:40:52.293Z,41.00
2019-06-28T09:43:21.358Z,40.20
2019-06-28T09:45:50.508Z,37.00
2019-06-28T09:48:19.644Z,36.00
2019-06-28T09:53:17.473Z,33.20
2019-06-28T09:55:46.543Z,38.30
2019-06-28T09:58:15.539Z,35.60
2019-06-28T10:00:44.790Z,34.90
2019-06-28T10:05:42.607Z,37.30
2019-06-28T10:08:11.635Z,32.40
2019-06-28T10:10:40.789Z,33.10
2019-06-28T10:13:09.651Z,33.00
2019-06-28T10:15:38.801Z,29.80
2019-06-28T10:18:07.898Z,27.90
2019-06-28T10:20:36.989Z,28.40
2019-06-28T10:23:06.045Z,29.30
2019-06-28T10:25:35.121Z,30.50
2019-06-28T10:28:04.171Z,30.40
2019-06-28T10:30:33.204Z,29.10
2019-06-28T10:33:02.368Z,28.90
2019-06-28T10:38:00.092Z,29.10
2019-06-28T10:40:28.840Z,28.40
2019-06-28T10:42:57.965Z,29.20
2019-06-28T10:45:27.047Z,30.40
2019-06-28T10:50:24.717Z,29.30
2019-06-28T10:52:53.898Z,31.40
2019-06-28T10:55:22.922Z,28.00
2019-06-28T10:57:52.017Z,28.40
2019-06-28T11:00:27.013Z,28.50
2019-06-28T11:02:56.130Z,29.10
2019-06-28T11:05:25.240Z,29.20
2019-06-28T11:07:54.370Z,29.90
2019-06-28T11:10:23.504Z,28.80
2019-06-28T11:15:21.273Z,32.50
2019-06-28T11:17:50.337Z,31.00
2019-06-28T11:20:19.476Z,31.90
2019-06-28T11:22:48.630Z,31.10
2019-06-28T11:25:17.731Z,31.50
2019-06-28T11:27:46.965Z,30.60
2019-06-28T11:32:45.095Z,30.40
2019-06-28T11:35:14.198Z,32.50
2019-06-28T11:37:43.270Z,32.70
2019-06-28T11:40:13.073Z,31.30
2019-06-28T11:42:42.076Z,30.20
2019-06-28T11:45:11.216Z,31.10
2019-06-28T11:47:40.328Z,28.40
2019-06-28T11:52:38.068Z,30.00
2019-06-28T11:55:07.210Z,31.00
2019-06-28T11:57:36.637Z,30.50
2019-06-28T12:00:07.315Z,32.00
2019-06-28T12:02:36.448Z,30.50
2019-06-28T12:05:05.872Z,31.20
2019-06-28T12:07:35.013Z,30.50
2019-06-28T12:12:32.908Z,31.10
2019-06-28T12:15:01.987Z,30.10
2019-06-28T12:17:32.468Z,31.00
2019-06-28T12:20:01.530Z,30.50
2019-06-28T12:22:30.585Z,31.40
2019-06-28T12:24:59.662Z,31.00
2019-06-28T12:27:28.756Z,30.50
2019-06-28T12:32:26.531Z,30.40
2019-06-28T12:34:55.510Z,32.40
2019-06-28T12:37:24.618Z,32.10
2019-06-28T12:39:53.786Z,31.40
2019-06-28T12:42:22.936Z,29.40
2019-06-28T12:47:20.690Z,29.50
2019-06-28T12:49:50.022Z,30.00
2019-06-28T12:52:21.999Z,30.80
2019-06-28T12:54:51.069Z,31.70
2019-06-28T12:57:20.145Z,30.80
2019-06-28T12:59:49.330Z,31.00
2019-06-28T13:02:21.224Z,31.60
2019-06-28T13:04:50.317Z,30.40
2019-06-28T13:09:49.724Z,31.50
2019-06-28T13:12:18.806Z,30.40
2019-06-28T13:14:47.943Z,32.20
2019-06-28T13:17:17.120Z,33.90
2019-06-28T13:19:46.497Z,30.80
2019-06-28T13:24:44.249Z,31.40
2019-06-28T13:27:13.749Z,32.40
2019-06-28T13:29:42.969Z,31.90
2019-06-28T13:32:11.970Z,32.40
2019-06-28T13:34:41.027Z,33.60
2019-06-28T13:37:10.266Z,31.30
2019-06-28T13:42:07.966Z,31.60
2019-06-28T13:44:37.113Z,31.00
2019-06-28T13:47:06.270Z,31.60
2019-06-28T13:49:35.513Z,31.80
2019-06-28T13:52:04.669Z,32.60
2019-06-28T13:54:33.553Z,30.90
2019-06-28T13:57:02.518Z,32.30
2019-06-28T13:59:33.387Z,31.80
2019-06-28T14:04:31.247Z,31.60
2019-06-28T14:07:00.507Z,33.40
2019-06-28T14:09:34.187Z,32.70
2019-06-28T14:12:03.960Z,33.70
2019-06-28T14:14:33.034Z,31.80
2019-06-28T14:17:02.125Z,32.40
2019-06-28T14:19:31.276Z,31.60
2019-06-28T14:22:00.469Z,31.10
2019-06-28T14:26:58.165Z,32.40
2019-06-28T14:29:27.482Z,33.10
2019-06-28T14:31:56.729Z,32.10
2019-06-28T14:34:26.137Z,32.10
2019-06-28T14:36:55.294Z,32.50
2019-06-28T14:39:24.302Z,32.70
2019-06-28T14:41:53.327Z,31.00
2019-06-28T14:46:51.168Z,32.60
2019-06-28T14:49:20.376Z,31.80
2019-06-28T14:51:49.502Z,32.30
2019-06-28T14:54:18.620Z,32.80
2019-06-28T14:56:47.796Z,32.30
2019-06-28T14:59:16.916Z,31.30
2019-06-28T15:01:46.382Z,32.30
2019-06-28T15:04:15.521Z,30.50
2019-06-28T15:09:13.265Z,32.20
2019-06-28T15:11:42.348Z,32.00
2019-06-28T15:14:11.509Z,30.50
2019-06-28T15:16:40.681Z,31.20
2019-06-28T15:19:12.888Z,32.30
2019-06-28T15:21:40.689Z,32.30
2019-06-28T15:24:09.854Z,31.20
2019-06-28T15:29:07.633Z,31.40
2019-06-28T15:31:36.756Z,31.50
2019-06-28T15:34:05.886Z,32.20
2019-06-28T15:36:35.094Z,31.60
2019-06-28T15:39:06.334Z,33.30
2019-06-28T15:41:35.482Z,34.20
2019-06-28T15:44:04.169Z,33.40
2019-06-28T15:46:34.131Z,32.30
2019-06-28T15:51:31.591Z,32.00
2019-06-28T15:54:10.023Z,32.10
2019-06-28T15:56:30.842Z,33.70
2019-06-28T15:58:59.525Z,34.00
2019-06-28T16:01:28.348Z,33.60
2019-06-28T16:03:57.118Z,33.20
2019-06-28T16:06:25.802Z,35.00
2019-06-28T16:08:54.855Z,43.70
2019-06-28T16:13:51.958Z,34.30
2019-06-28T16:16:20.748Z,35.40
2019-06-28T16:18:49.429Z,35.20
2019-06-28T16:21:18.199Z,36.90
2019-06-28T16:23:46.880Z,36.20
2019-06-28T16:26:15.578Z,35.40
2019-06-28T16:28:44.263Z,34.60
2019-06-28T16:33:41.672Z,35.10
2019-06-28T16:36:10.507Z,36.10
2019-06-28T16:38:39.419Z,36.80
2019-06-28T16:41:08.250Z,36.80
2019-06-28T16:43:37.180Z,36.40
2019-06-28T16:46:06.050Z,35.30
2019-06-28T16:51:03.906Z,35.70
2019-06-28T16:53:32.902Z,36.10
2019-06-28T16:56:01.714Z,36.10
2019-06-28T16:58:30.528Z,35.90
2019-06-28T17:03:28.054Z,35.60
2019-06-28T17:05:56.764Z,36.40
2019-06-28T17:08:25.597Z,36.30
2019-06-28T17:10:54.621Z,37.30
2019-06-28T17:13:23.443Z,36.00
2019-06-28T17:18:20.555Z,38.50
2019-06-28T17:20:49.321Z,36.90
2019-06-28T17:23:18.126Z,37.80
2019-06-28T17:25:46.996Z,38.20
2019-06-28T17:28:15.913Z,37.60
2019-06-28T17:30:44.683Z,38.70
2019-06-28T17:35:41.712Z,38.70
2019-06-28T17:38:10.723Z,40.50
2019-06-28T17:40:39.429Z,39.10
2019-06-28T17:43:08.134Z,39.60
2019-06-28T17:45:36.895Z,39.60
2019-06-28T17:48:05.608Z,39.30
2019-06-28T17:50:39.213Z,40.00
2019-06-28T17:53:04.745Z,40.50
2019-06-28T17:55:33.545Z,41.00
2019-06-28T18:00:30.770Z,40.90
2019-06-28T18:02:59.532Z,40.90
2019-06-28T18:05:29.522Z,41.70
2019-06-28T18:07:58.433Z,42.20
2019-06-28T18:10:27.914Z,43.10
2019-06-28T18:12:56.697Z,42.80
2019-06-28T18:15:25.466Z,42.60
2019-06-28T18:17:54.178Z,42.60
2019-06-28T18:22:51.336Z,41.90
2019-06-28T18:25:20.051Z,41.40
2019-06-28T18:27:48.749Z,41.70
2019-06-28T18:30:17.517Z,41.60
2019-06-28T18:35:14.779Z,42.40
2019-06-28T18:37:43.478Z,43.60
2019-06-28T18:40:13.295Z,43.70
2019-06-28T18:42:41.998Z,43.80
2019-06-28T18:45:10.730Z,44.40
2019-06-28T18:47:39.525Z,44.20
2019-06-28T18:50:08.235Z,44.00
2019-06-28T18:52:37.398Z,43.80
2019-06-28T18:55:06.580Z,44.20
2019-06-28T19:00:04.700Z,44.10
2019-06-28T19:02:43.049Z,44.50
2019-06-28T19:05:04.617Z,44.90
2019-06-28T19:07:34.054Z,45.40
2019-06-28T19:10:03.227Z,45.80
2019-06-28T19:12:32.430Z,45.80
2019-06-28T19:15:01.710Z,46.40
2019-06-28T19:17:30.727Z,46.30
2019-06-28T19:19:59.715Z,46.70
2019-06-28T19:22:30.969Z,46.60
2019-06-28T19:27:28.739Z,47.10
2019-06-28T19:29:57.848Z,47.70
2019-06-28T19:32:26.993Z,47.60
2019-06-28T19:34:56.029Z,47.90
2019-06-28T19:37:25.229Z,48.10
2019-06-28T19:39:54.352Z,49.00
2019-06-28T19:42:23.493Z,49.20
2019-06-28T19:47:21.642Z,49.40
2019-06-28T19:49:50.616Z,49.50
2019-06-28T19:52:19.792Z,50.00
2019-06-28T19:54:48.926Z,50.50
2019-06-28T19:57:18.047Z,51.10
2019-06-28T19:59:47.245Z,51.30
2019-06-28T20:02:16.306Z,51.40
2019-06-28T20:04:45.290Z,51.50
2019-06-28T20:07:14.763Z,72.10
2019-06-28T20:09:43.858Z,54.60
2019-06-28T20:12:12.952Z,56.00
2019-06-28T20:14:42.098Z,56.10
2019-06-28T20:17:11.238Z,56.90
2019-06-28T20:19:42.923Z,57.80
2019-06-28T20:22:11.271Z,58.30
2019-06-28T20:24:40.448Z,58.40
2019-06-28T20:32:06.826Z,58.20
2019-06-28T20:34:35.963Z,59.90
2019-06-28T20:37:05.102Z,61.10
2019-06-28T20:39:34.212Z,61.80
2019-06-28T20:42:03.324Z,62.30
2019-06-28T20:44:32.687Z,62.60
2019-06-28T20:47:02.165Z,63.00
2019-06-28T20:52:14.341Z,63.90
2019-06-28T20:54:37.277Z,63.90
2019-06-28T20:57:04.865Z,65.30
2019-06-28T20:59:33.964Z,66.00
2019-06-28T21:02:03.175Z,66.20
2019-06-28T21:04:32.709Z,66.80
2019-06-28T21:07:01.819Z,66.60
2019-06-28T21:09:30.811Z,67.60
2019-06-28T21:11:59.999Z,67.90
2019-06-28T21:16:57.848Z,68.10
2019-06-28T21:19:27.018Z,69.00
2019-06-28T21:21:56.294Z,69.70
2019-06-28T21:24:25.450Z,70.40
2019-06-28T21:26:57.317Z,70.30
2019-06-28T21:29:26.294Z,70.30
2019-06-28T21:31:55.423Z,70.30
2019-06-28T21:34:24.664Z,70.50
2019-06-28T21:36:53.803Z,71.30
2019-06-28T21:39:23.035Z,71.50
2019-06-28T21:41:52.004Z,72.10
2019-06-28T21:44:21.080Z,72.00
2019-06-28T21:46:50.160Z,71.90
2019-06-28T21:49:19.290Z,73.30
2019-06-28T21:51:48.450Z,73.90
2019-06-28T21:54:17.451Z,74.00
2019-06-28T21:56:46.584Z,74.70
2019-06-28T21:59:15.807Z,77.80
2019-06-28T22:01:44.949Z,75.90
2019-06-28T22:04:13.989Z,76.60
2019-06-28T22:06:43.085Z,76.80
2019-06-28T22:09:12.141Z,76.90
2019-06-28T22:11:41.249Z,75.50
2019-06-28T22:14:10.387Z,76.10
2019-06-28T22:16:39.489Z,75.80
2019-06-28T22:21:36.785Z,75.70
2019-06-28T22:24:05.940Z,76.90
2019-06-28T22:26:35.127Z,77.20
2019-06-28T22:29:04.631Z,77.40
2019-06-28T22:31:33.736Z,77.90
2019-06-28T22:34:03.152Z,77.60
2019-06-28T22:36:32.330Z,78.30
2019-06-28T22:39:01.399Z,77.70
2019-06-28T22:43:59.048Z,77.60
2019-06-28T22:46:28.207Z,78.90
2019-06-28T22:48:57.289Z,79.50
2019-06-28T22:51:26.334Z,80.00
2019-06-28T22:53:55.371Z,80.40
2019-06-28T22:56:24.349Z,80.40
2019-06-28T22:58:53.506Z,80.60
2019-06-28T23:01:22.848Z,80.30
2019-06-28T23:06:20.689Z,80.50
2019-06-28T23:08:49.678Z,81.60
2019-06-28T23:11:18.816Z,82.00
2019-06-28T23:13:47.832Z,82.40
2019-06-28T23:16:16.970Z,82.60
2019-06-28T23:18:45.936Z,83.00
2019-06-28T23:21:15.060Z,82.50
2019-06-28T23:28:41.295Z,83.90
2019-06-28T23:31:10.674Z,84.60
2019-06-28T23:33:39.727Z,84.30
2019-06-28T23:36:08.919Z,85.60
2019-06-28T23:38:38.001Z,85.10
2019-06-28T23:41:07.125Z,85.60
2019-06-28T23:43:36.328Z,85.10
2019-06-28T23:48:34.143Z,84.40
2019-06-28T23:51:03.231Z,84.90
2019-06-28T23:53:32.258Z,85.60
2019-06-28T23:56:01.355Z,86.30
2019-06-28T23:58:30.504Z,86.90
